Time;durP1;ratioP1;P1;durP2;ratioP2;P2;SDS_P1;SDS_P2;PMS_P1;PMS_P2;Temp;Humidity;BMP_temperature;BMP_pressure;BME280_temperature;BME280_humidity;BME280_pressure;Samples;Min_cycle;Max_cycle;Signal;HPM_P1;HPM_P2
2022/02/13 00:00:26;;;;;;;30.58;14.07;;;;;;;-1.58;70.55;102108.03;5068826;28;20129;-73
2022/02/13 00:02:52;;;;;;;29.73;13.80;;;;;;;-1.57;70.27;102098.41;5069767;28;20040;-73
2022/02/13 00:05:21;;;;;;;31.17;15.00;;;;;;;-1.59;70.34;102105.41;5069225;28;20021;-73
2022/02/13 00:07:46;;;;;;;30.73;16.13;;;;;;;-1.62;70.22;102108.09;5068640;28;21028;-73
2022/02/13 00:10:13;;;;;;;29.80;15.23;;;;;;;-1.67;70.75;102092.38;5069902;28;20131;-73
2022/02/13 00:12:39;;;;;;;29.33;15.48;;;;;;;-1.66;70.70;102099.34;5071411;28;20460;-73
2022/02/13 00:15:06;;;;;;;34.45;15.25;;;;;;;-1.67;71.11;102091.47;5069678;28;20035;-73
2022/02/13 00:17:32;;;;;;;37.72;14.82;;;;;;;-1.68;70.64;102102.91;5070891;28;20111;-73
2022/02/13 00:19:59;;;;;;;31.17;15.60;;;;;;;-1.77;70.78;102082.81;5070833;28;20031;-73
2022/02/13 00:22:25;;;;;;;31.98;14.70;;;;;;;-1.76;71.13;102096.81;5070832;28;20027;-73
2022/02/13 00:24:51;;;;;;;30.05;14.88;;;;;;;-1.73;71.08;102102.94;5069821;28;20020;-73
2022/02/13 00:27:16;;;;;;;28.73;14.90;;;;;;;-1.80;71.04;102089.84;5071008;28;20503;-73
2022/02/13 00:29:42;;;;;;;29.00;14.20;;;;;;;-1.80;71.10;102095.13;5071003;28;20063;-73
2022/02/13 00:32:09;;;;;;;29.42;13.77;;;;;;;-1.84;71.31;102098.66;5070605;28;20028;-73
2022/02/13 00:34:35;;;;;;;31.25;13.13;;;;;;;-1.94;71.11;102066.31;5070975;28;20035;-73
2022/02/13 00:37:00;;;;;;;23.83;12.00;;;;;;;-1.95;70.93;102074.22;5070277;28;20480;-73
2022/02/13 00:39:27;;;;;;;27.92;12.95;;;;;;;-2.00;70.81;102065.50;5069619;28;20027;-73
2022/02/13 00:41:52;;;;;;;29.13;12.73;;;;;;;-1.92;70.49;102087.34;5070468;28;20035;-73
2022/02/13 00:44:18;;;;;;;25.77;13.30;;;;;;;-1.97;71.28;102076.84;5070310;28;20032;-73
2022/02/13 00:46:43;;;;;;;20.42;12.32;;;;;;;-1.99;70.91;102076.00;5069892;28;20024;-73
2022/02/13 00:49:09;;;;;;;22.20;12.00;;;;;;;-2.00;70.77;102079.50;5070051;28;20041;-73
2022/02/13 00:51:34;;;;;;;25.13;11.13;;;;;;;-2.06;71.21;102063.81;5070709;28;20028;-72
2022/02/13 00:54:00;;;;;;;24.27;12.13;;;;;;;-2.08;71.32;102062.06;5069044;28;20078;-72
2022/02/13 00:56:25;;;;;;;19.33;10.63;;;;;;;-2.08;71.45;102056.81;5070563;28;20025;-73
2022/02/13 00:58:52;;;;;;;27.52;11.93;;;;;;;-2.07;71.18;102061.19;5068955;28;20055;-73
2022/02/13 01:01:18;;;;;;;23.30;12.05;;;;;;;-2.06;71.44;102065.56;5069974;28;20107;-73
2022/02/13 01:03:43;;;;;;;23.80;11.55;;;;;;;-2.06;71.61;102062.94;5069958;28;20100;-72
2022/02/13 01:06:09;;;;;;;24.20;11.02;;;;;;;-2.27;71.10;102032.44;5069733;28;20033;-75
2022/02/13 01:08:34;;;;;;;21.65;11.90;;;;;;;-2.14;71.19;102051.59;5068491;28;20028;-74
2022/02/13 01:11:00;;;;;;;22.73;11.90;;;;;;;-2.21;71.19;102050.78;5068419;28;20082;-73
2022/02/13 01:13:27;;;;;;;23.25;12.63;;;;;;;-2.16;71.07;102061.28;5070304;28;20024;-73
2022/02/13 01:15:53;;;;;;;22.45;11.65;;;;;;;-2.25;71.08;102041.19;5069996;28;20465;-73
2022/02/13 01:18:19;;;;;;;24.50;11.00;;;;;;;-2.20;71.74;102054.31;5070728;28;20111;-73
2022/02/13 01:20:45;;;;;;;21.00;11.32;;;;;;;-2.36;71.78;102030.78;5070075;28;20040;-73
2022/02/13 01:23:11;;;;;;;23.17;11.07;;;;;;;-2.38;71.95;102026.44;5070001;28;20490;-73
2022/02/13 01:25:36;;;;;;;25.20;10.95;;;;;;;-2.33;71.53;102042.16;5068869;28;20051;-73
2022/02/13 01:28:03;;;;;;;23.92;10.88;;;;;;;-2.34;71.96;102046.53;5070877;28;20040;-73
2022/02/13 01:30:29;;;;;;;24.95;10.55;;;;;;;-2.44;71.73;102034.34;5070730;28;20096;-72
2022/02/13 01:32:54;;;;;;;20.95;10.75;;;;;;;-2.39;71.98;102045.66;5070724;28;20031;-72
2022/02/13 01:35:20;;;;;;;26.48;12.90;;;;;;;-2.44;72.39;102037.84;5070884;28;20024;-73
2022/02/13 01:37:45;;;;;;;30.92;12.30;;;;;;;-2.58;72.42;102010.81;5070780;28;20024;-73
2022/02/13 01:40:12;;;;;;;22.58;11.27;;;;;;;-2.53;72.29;102019.53;5070462;28;20021;-73
2022/02/13 01:42:37;;;;;;;25.58;10.90;;;;;;;-2.51;72.48;102028.25;5068990;28;20024;-72
2022/02/13 01:45:04;;;;;;;23.23;10.85;;;;;;;-2.56;72.39;102024.81;5068780;28;20036;-74
2022/02/13 01:47:30;;;;;;;31.05;11.68;;;;;;;-2.60;72.54;102016.97;5070683;28;20466;-73
2022/02/13 01:49:56;;;;;;;27.75;13.43;;;;;;;-2.69;72.72;101996.91;5068355;28;20067;-72
2022/02/13 01:52:22;;;;;;;27.15;13.38;;;;;;;-2.69;72.59;102001.25;5069859;28;20594;-72
2022/02/13 01:54:48;;;;;;;23.38;11.55;;;;;;;-2.57;72.94;102012.56;5069850;28;20112;-72
2022/02/13 01:57:13;;;;;;;25.58;11.38;;;;;;;-2.58;73.54;102010.81;5070095;28;20107;-74
2022/02/13 01:59:40;;;;;;;28.00;11.25;;;;;;;-2.59;73.62;102009.06;5070413;28;20727;-74
2022/02/13 02:02:06;;;;;;;20.52;10.77;;;;;;;-2.57;73.64;102007.31;5068442;28;20047;-73
2022/02/13 02:04:31;;;;;;;20.40;10.93;;;;;;;-2.65;73.93;101988.09;5069028;28;20484;-73
2022/02/13 02:06:57;;;;;;;21.08;10.50;;;;;;;-2.63;73.52;101993.34;5070279;28;20052;-71
2022/02/13 02:09:26;;;;;;;20.90;10.10;;;;;;;-2.59;73.80;101992.44;5071394;28;20036;-73
2022/02/13 02:11:52;;;;;;;20.08;10.07;;;;;;;-2.57;73.96;101998.56;5066999;28;20529;-73
2022/02/13 02:14:17;;;;;;;24.35;9.48;;;;;;;-2.57;74.00;101993.31;5066811;28;20187;-68
2022/02/13 02:16:44;;;;;;;18.55;9.90;;;;;;;-2.48;74.36;101993.25;5066339;28;20035;-68
2022/02/13 02:19:10;;;;;;;20.15;10.68;;;;;;;-2.55;74.20;101979.25;5065226;28;20464;-68
2022/02/13 02:21:44;;;;;;;20.65;9.23;;;;;;;-2.47;73.81;101982.72;5063243;28;20087;-68
2022/02/13 02:24:14;;;;;;;21.83;9.70;;;;;;;-2.50;73.74;101985.38;5062865;28;20024;-69
2022/02/13 02:26:40;;;;;;;16.27;8.55;;;;;;;-2.45;73.87;101991.44;5063065;28;20032;-69
2022/02/13 02:29:07;;;;;;;17.35;8.60;;;;;;;-2.50;73.89;101974.88;5065701;28;20028;-67
2022/02/13 02:31:33;;;;;;;17.58;8.77;;;;;;;-2.42;73.58;101987.91;5065696;28;20040;-68
2022/02/13 02:33:58;;;;;;;25.65;9.35;;;;;;;-2.43;73.59;101979.16;5065757;28;20047;-69
2022/02/13 02:36:24;;;;;;;21.27;9.32;;;;;;;-2.36;73.22;101993.09;5066241;28;20021;-68
2022/02/13 02:38:50;;;;;;;18.40;9.35;;;;;;;-2.44;73.14;101980.06;5066054;28;20040;-68
2022/02/13 02:41:16;;;;;;;17.88;9.20;;;;;;;-2.33;73.00;101993.97;5064376;28;20086;-68
2022/02/13 02:43:42;;;;;;;15.93;9.27;;;;;;;-2.30;73.29;101984.31;5064352;28;20028;-69
2022/02/13 02:46:09;;;;;;;22.27;9.18;;;;;;;-2.29;73.04;101979.03;5065790;28;20028;-69
2022/02/13 02:48:35;;;;;;;18.35;9.27;;;;;;;-2.28;72.66;101979.00;5065774;28;20147;-69
2022/02/13 02:51:01;;;;;;;18.23;9.52;;;;;;;-2.39;72.27;101967.75;5065726;28;20108;-69
2022/02/13 02:53:28;;;;;;;22.40;9.93;;;;;;;-2.34;71.89;101983.47;5066104;28;20756;-69
2022/02/13 02:55:54;;;;;;;22.23;10.05;;;;;;;-2.36;71.48;101986.09;5066164;28;20036;-69
2022/02/13 02:58:20;;;;;;;21.85;10.55;;;;;;;-2.52;71.39;101958.22;5065245;28;20032;-69
2022/02/13 03:00:46;;;;;;;21.42;10.90;;;;;;;-2.56;71.40;101972.28;5065751;28;20032;-69
2022/02/13 03:03:11;;;;;;;21.40;10.30;;;;;;;-2.54;71.52;101974.91;5065375;28;20506;-69
2022/02/13 03:05:37;;;;;;;20.58;10.18;;;;;;;-2.58;71.44;101984.53;5064316;28;20032;-68
2022/02/13 03:08:02;;;;;;;21.50;10.02;;;;;;;-2.67;71.60;101968.00;5065437;28;20064;-68
2022/02/13 03:10:28;;;;;;;18.60;10.00;;;;;;;-2.63;71.34;101983.72;5066994;28;20036;-69
2022/02/13 03:12:54;;;;;;;20.67;10.18;;;;;;;-2.76;71.53;101962.81;5070340;28;20032;-74
2022/02/13 03:15:19;;;;;;;20.50;10.70;;;;;;;-2.73;72.08;101984.69;5075839;28;20028;-74
2022/02/13 03:17:45;;;;;;;20.20;10.18;;;;;;;-2.79;72.06;101974.22;5074671;28;20037;-74
2022/02/13 03:20:11;;;;;;;22.55;10.05;;;;;;;-2.84;71.57;101968.13;5075556;28;20515;-73
2022/02/13 03:22:36;;;;;;;23.48;10.52;;;;;;;-3.02;71.62;101947.25;5075704;28;20043;-74
2022/02/13 03:25:03;;;;;;;20.70;10.95;;;;;;;-3.08;71.03;101949.03;5074358;28;20032;-74
2022/02/13 03:27:29;;;;;;;24.02;11.25;;;;;;;-3.01;71.98;101961.22;5075727;28;20036;-74
2022/02/13 03:29:54;;;;;;;20.73;9.90;;;;;;;-3.06;72.49;101956.00;5072456;28;20028;-69
2022/02/13 03:32:20;;;;;;;21.58;10.13;;;;;;;-3.08;73.26;101955.16;5067332;28;20027;-68
2022/02/13 03:34:45;;;;;;;25.10;10.80;;;;;;;-3.01;73.24;101967.38;5068910;28;20028;-68
2022/02/13 03:37:11;;;;;;;23.77;11.00;;;;;;;-3.11;73.00;101941.19;5067391;28;20438;-68
2022/02/13 03:39:38;;;;;;;20.52;10.18;;;;;;;-3.08;73.35;101952.56;5068892;28;20444;-68
2022/02/13 03:42:04;;;;;;;21.77;10.07;;;;;;;-3.12;73.40;101948.22;5068887;28;20034;-69
2022/02/13 03:44:29;;;;;;;23.80;10.55;;;;;;;-3.08;73.20;101939.44;5068720;28;20091;-68
2022/02/13 03:46:55;;;;;;;22.27;10.98;;;;;;;-3.09;73.45;101942.91;5068875;28;20432;-69
2022/02/13 03:49:20;;;;;;;22.55;11.02;;;;;;;-3.13;74.20;101930.69;5067568;28;20043;-69
2022/02/13 03:51:46;;;;;;;23.45;10.90;;;;;;;-3.14;73.75;101922.84;5068792;28;20039;-69
2022/02/13 03:54:11;;;;;;;24.25;9.73;;;;;;;-3.09;73.62;101932.41;5067332;28;20028;-69
2022/02/13 03:56:37;;;;;;;21.73;9.60;;;;;;;-3.07;73.87;101930.66;5068941;28;20402;-69
2022/02/13 03:59:02;;;;;;;21.23;10.70;;;;;;;-3.09;73.82;101932.41;5068830;28;20028;-69
2022/02/13 04:01:29;;;;;;;21.27;10.40;;;;;;;-3.05;73.38;101931.53;5068027;28;20028;-69
2022/02/13 04:03:54;;;;;;;25.75;10.05;;;;;;;-3.01;73.72;101935.88;5069263;28;20557;-69
2022/02/13 04:06:20;;;;;;;22.60;10.88;;;;;;;-3.05;74.17;101920.16;5068649;28;20041;-69
2022/02/13 04:08:45;;;;;;;24.90;11.63;;;;;;;-2.91;73.68;101948.03;5067262;28;20036;-69
2022/02/13 04:11:11;;;;;;;20.45;10.23;;;;;;;-3.04;73.24;101920.16;5066793;28;20078;-68
2022/02/13 04:13:36;;;;;;;21.52;10.45;;;;;;;-2.98;72.71;101933.22;5068172;28;20024;-69
2022/02/13 04:16:01;;;;;;;18.70;9.90;;;;;;;-2.97;73.06;101934.13;5068493;28;20634;-68
2022/02/13 04:18:27;;;;;;;24.33;10.60;;;;;;;-2.95;73.40;101927.97;5068840;28;20041;-68
2022/02/13 04:20:52;;;;;;;20.10;10.18;;;;;;;-2.94;73.90;101921.81;5066274;28;20068;-69
2022/02/13 04:23:18;;;;;;;23.90;11.70;;;;;;;-2.94;72.66;101924.44;5067496;28;20502;-68
2022/02/13 04:25:43;;;;;;;25.08;11.00;;;;;;;-2.98;73.16;101919.22;5066800;28;20024;-69
2022/02/13 04:28:09;;;;;;;22.02;11.05;;;;;;;-3.00;72.83;101916.63;5067895;28;20621;-69
2022/02/13 04:30:34;;;;;;;20.42;11.00;;;;;;;-2.96;72.40;101930.59;5067761;28;20036;-69
2022/02/13 04:33:00;;;;;;;20.70;9.70;;;;;;;-3.11;72.94;101912.31;5067706;28;20059;-70
2022/02/13 04:35:27;;;;;;;24.30;10.60;;;;;;;-3.05;72.47;101921.03;5068268;28;20028;-69
2022/02/13 04:37:54;;;;;;;23.25;11.45;;;;;;;-3.08;72.58;101914.94;5066314;28;20036;-69
2022/02/13 04:40:20;;;;;;;24.05;11.68;;;;;;;-3.33;72.90;101877.50;5067658;28;20081;-70
2022/02/13 04:42:46;;;;;;;24.38;12.73;;;;;;;-3.14;73.38;101910.59;5063558;28;20028;-69
2022/02/13 04:45:12;;;;;;;22.50;12.00;;;;;;;-3.13;73.63;101904.47;5066005;28;20641;-69
2022/02/13 04:47:38;;;;;;;26.65;12.10;;;;;;;-3.09;73.28;101910.56;5067705;28;20085;-69
2022/02/13 04:50:04;;;;;;;24.92;11.85;;;;;;;-3.17;73.79;101902.75;5067361;28;20045;-69
2022/02/13 04:52:29;;;;;;;26.25;11.60;;;;;;;-3.12;73.46;101903.59;5065507;28;20024;-68
2022/02/13 04:54:55;;;;;;;28.05;13.05;;;;;;;-3.13;73.46;101895.75;5067769;28;20438;-69
2022/02/13 04:57:20;;;;;;;24.77;11.88;;;;;;;-3.10;73.28;101906.19;5067572;28;20526;-69
2022/02/13 04:59:46;;;;;;;28.15;12.07;;;;;;;-3.24;73.65;101872.19;5066036;28;20166;-69
2022/02/13 05:02:12;;;;;;;29.58;13.05;;;;;;;-3.12;73.74;101900.09;5065270;28;20024;-68
2022/02/13 05:04:37;;;;;;;27.38;15.13;;;;;;;-3.18;73.40;101887.03;5067266;28;20024;-69
2022/02/13 05:07:05;;;;;;;24.30;11.93;;;;;;;-3.16;73.88;101898.38;5065568;28;20431;-69
2022/02/13 05:09:31;;;;;;;24.98;12.38;;;;;;;-3.16;73.37;101899.22;5067143;28;20032;-69
2022/02/13 05:11:56;;;;;;;26.30;12.52;;;;;;;-3.24;73.42;101887.06;5067328;28;20044;-68
2022/02/13 05:14:22;;;;;;;24.48;11.45;;;;;;;-3.20;72.73;101884.41;5066551;28;20016;-69
2022/02/13 05:16:47;;;;;;;25.98;11.32;;;;;;;-3.15;73.43;101900.13;5066809;28;20157;-69
2022/02/13 05:19:13;;;;;;;25.70;11.93;;;;;;;-3.14;73.55;101889.63;5067213;28;20495;-69
2022/02/13 05:21:40;;;;;;;23.67;11.73;;;;;;;-3.17;73.05;101887.00;5067488;28;20059;-69
2022/02/13 05:24:05;;;;;;;24.42;12.27;;;;;;;-3.13;73.46;101895.75;5065720;28;20048;-68
2022/02/13 05:26:31;;;;;;;21.67;11.57;;;;;;;-3.13;73.48;101886.09;5070279;28;20032;-75
2022/02/13 05:28:57;;;;;;;22.77;11.15;;;;;;;-3.02;73.06;101881.66;5073956;28;20024;-75
2022/02/13 05:31:26;;;;;;;24.42;11.48;;;;;;;-3.06;73.12;101879.06;5072234;28;20060;-75
2022/02/13 05:33:52;;;;;;;19.98;11.05;;;;;;;-3.00;72.96;101890.38;5073313;28;20024;-75
2022/02/13 05:36:17;;;;;;;24.95;12.00;;;;;;;-2.95;73.02;101892.97;5073558;28;20078;-74
2022/02/13 05:38:42;;;;;;;24.17;11.55;;;;;;;-3.02;72.69;101875.53;5073502;28;20468;-74
2022/02/13 05:41:08;;;;;;;25.10;12.43;;;;;;;-3.03;72.52;101864.16;5073550;28;20024;-75
2022/02/13 05:43:33;;;;;;;25.52;12.73;;;;;;;-2.86;72.42;101893.78;5073454;28;20024;-75
2022/02/13 05:45:59;;;;;;;25.05;12.85;;;;;;;-2.95;72.32;101870.22;5073371;28;20028;-74
2022/02/13 05:48:25;;;;;;;23.48;11.50;;;;;;;-2.83;72.20;101893.72;5072100;28;20387;-74
2022/02/13 05:50:51;;;;;;;25.63;11.55;;;;;;;-2.77;72.54;101884.94;5071756;28;20495;-69
2022/02/13 05:53:17;;;;;;;23.55;11.15;;;;;;;-2.75;71.86;101885.78;5066196;28;20086;-68
2022/02/13 05:55:42;;;;;;;22.45;11.95;;;;;;;-2.83;71.84;101872.72;5066383;28;20060;-69
2022/02/13 05:58:08;;;;;;;22.60;11.70;;;;;;;-2.75;71.59;101891.91;5066348;28;20024;-69
2022/02/13 06:00:33;;;;;;;23.60;12.65;;;;;;;-2.76;71.61;101882.31;5064868;28;20535;-69
2022/02/13 06:02:59;;;;;;;29.52;14.18;;;;;;;-2.75;71.12;101883.16;5065136;28;20025;-69
2022/02/13 06:05:24;;;;;;;31.08;15.02;;;;;;;-2.83;71.24;101877.97;5066406;28;20032;-69
2022/02/13 06:07:50;;;;;;;31.02;14.75;;;;;;;-2.79;71.56;101887.59;5066451;28;20078;-69
2022/02/13 06:10:15;;;;;;;29.90;14.05;;;;;;;-2.83;71.34;101888.47;5066340;28;20032;-69
2022/02/13 06:12:41;;;;;;;30.25;14.38;;;;;;;-2.82;71.29;101889.34;5064891;28;20023;-69
2022/02/13 06:15:10;;;;;;;30.58;13.68;;;;;;;-2.81;71.40;101901.59;5064271;28;20024;-69
2022/02/13 06:17:36;;;;;;;26.17;13.68;;;;;;;-2.87;71.77;101891.16;5066643;28;20416;-68
2022/02/13 06:20:02;;;;;;;27.85;14.43;;;;;;;-2.80;72.06;101903.34;5066904;28;20138;-68
2022/02/13 06:22:28;;;;;;;28.40;13.93;;;;;;;-2.80;72.00;101909.44;5066515;28;20032;-68
2022/02/13 06:24:53;;;;;;;29.33;14.43;;;;;;;-2.76;71.58;101911.19;5066226;28;20029;-69
2022/02/13 06:27:19;;;;;;;28.25;14.40;;;;;;;-2.87;71.71;101892.00;5065056;28;20035;-68
2022/02/13 06:29:44;;;;;;;24.65;13.93;;;;;;;-2.87;72.33;101894.63;5067093;28;20032;-69
2022/02/13 06:32:10;;;;;;;33.97;14.65;;;;;;;-2.79;72.50;101905.97;5071857;28;20103;-74
2022/02/13 06:34:35;;;;;;;24.60;12.27;;;;;;;-2.71;72.59;101904.13;5072315;28;20051;-74
2022/02/13 06:37:01;;;;;;;23.55;12.25;;;;;;;-2.77;72.18;101891.06;5073390;28;20036;-74
2022/02/13 06:39:26;;;;;;;31.30;12.10;;;;;;;-2.61;72.73;101918.06;5072119;28;20025;-75
2022/02/13 06:41:51;;;;;;;26.92;13.07;;;;;;;-2.60;72.57;101904.03;5073464;28;20085;-74
2022/02/13 06:44:17;;;;;;;22.38;12.10;;;;;;;-2.51;72.77;101919.72;5073294;28;20032;-74
2022/02/13 06:46:42;;;;;;;24.42;11.77;;;;;;;-2.47;72.25;101913.53;5075249;28;20034;-74
2022/02/13 06:49:11;;;;;;;27.25;12.38;;;;;;;-2.44;72.43;101908.25;5077182;28;20024;-75
2022/02/13 06:51:37;;;;;;;26.17;12.98;;;;;;;-2.37;72.09;101910.81;5073919;28;20115;-75
2022/02/13 06:54:03;;;;;;;22.70;12.48;;;;;;;-2.29;71.96;101910.72;5072894;28;20110;-70
2022/02/13 06:56:28;;;;;;;28.45;14.25;;;;;;;-2.22;72.21;101906.28;5068695;28;20020;-70
2022/02/13 06:58:54;;;;;;;27.67;14.05;;;;;;;-2.20;71.67;101902.75;5070717;28;20024;-70
2022/02/13 07:01:19;;;;;;;31.63;14.13;;;;;;;-2.14;71.50;101889.53;5069764;28;20047;-70
2022/02/13 07:03:45;;;;;;;22.58;12.10;;;;;;;-2.03;71.51;101903.47;5069768;28;20024;-70
2022/02/13 07:06:10;;;;;;;29.02;14.23;;;;;;;-2.04;71.40;101899.06;5069411;28;20066;-70
2022/02/13 07:08:35;;;;;;;25.55;12.07;;;;;;;-1.87;71.29;101909.41;5067904;28;20109;-70
2022/02/13 07:11:01;;;;;;;29.52;13.02;;;;;;;-1.81;71.06;101911.97;5068553;28;20032;-70
2022/02/13 07:13:27;;;;;;;28.13;13.48;;;;;;;-1.70;70.70;101916.19;5069090;28;20024;-70
2022/02/13 07:15:53;;;;;;;23.38;12.48;;;;;;;-1.67;71.03;101910.00;5068790;28;20035;-70
2022/02/13 07:18:19;;;;;;;26.58;14.80;;;;;;;-1.58;71.07;101917.78;5068705;28;20020;-70
2022/02/13 07:20:44;;;;;;;23.52;13.40;;;;;;;-1.51;70.46;101903.66;5068917;28;20500;-70
2022/02/13 07:23:10;;;;;;;22.52;13.20;;;;;;;-1.44;70.32;101902.69;5067036;28;20035;-70
2022/02/13 07:25:35;;;;;;;22.85;12.57;;;;;;;-1.46;70.54;101881.66;5069055;28;20039;-70
2022/02/13 07:28:58;;;;;;;27.38;13.50;;;;;;;-1.27;70.41;101905.94;5069005;28;20028;-69
2022/02/13 07:30:49;;;;;;;20.15;12.25;;;;;;;-1.18;70.21;101901.44;5068987;28;20040;-69
2022/02/13 07:33:14;;;;;;;22.08;11.93;;;;;;;-1.17;69.88;101881.22;5065943;28;20039;-69
2022/02/13 07:35:43;;;;;;;23.10;12.98;;;;;;;-1.07;69.89;101885.44;5066791;28;20169;-70
2022/02/13 07:38:11;;;;;;;21.83;11.43;;;;;;;-0.90;69.67;101889.56;5068175;28;20028;-69
2022/02/13 07:40:38;;;;;;;19.92;12.75;;;;;;;-0.89;69.57;101882.53;5067361;28;20025;-69
2022/02/13 07:43:04;;;;;;;22.30;12.75;;;;;;;-0.73;69.42;101892.81;5067309;28;20031;-69
2022/02/13 07:45:30;;;;;;;23.80;13.77;;;;;;;-0.69;69.43;101878.69;5066958;28;20509;-69
2022/02/13 07:47:55;;;;;;;22.33;12.30;;;;;;;-0.57;69.13;101890.78;5067062;28;20149;-70
2022/02/13 07:50:21;;;;;;;23.58;12.63;;;;;;;-0.46;68.64;101879.13;5068253;28;20025;-69
2022/02/13 07:52:46;;;;;;;30.35;13.60;;;;;;;-0.36;68.33;101888.63;5068034;28;20114;-69
2022/02/13 07:55:12;;;;;;;24.30;13.07;;;;;;;-0.34;68.16;101873.66;5068062;28;20026;-70
2022/02/13 07:57:38;;;;;;;23.45;11.80;;;;;;;-0.20;68.15;101871.63;5068622;28;20090;-69
2022/02/13 08:00:05;;;;;;;26.13;12.82;;;;;;;-0.10;67.98;101880.19;5070305;28;20078;-74
2022/02/13 08:02:31;;;;;;;27.70;13.80;;;;;;;0.04;67.85;101884.31;5070408;28;20420;-74
2022/02/13 08:04:56;;;;;;;22.63;12.65;;;;;;;0.07;67.26;101867.56;5070165;28;20094;-74
2022/02/13 08:07:22;;;;;;;25.13;13.77;;;;;;;0.27;67.07;101881.22;5070365;28;20025;-74
2022/02/13 08:09:47;;;;;;;21.77;13.18;;;;;;;0.27;67.23;101865.38;5070146;28;20107;-74
2022/02/13 08:12:12;;;;;;;24.35;13.07;;;;;;;0.46;67.36;101879.06;5070077;28;20052;-74
2022/02/13 08:14:38;;;;;;;24.40;13.60;;;;;;;0.61;66.86;101879.56;5070740;28;20036;-74
2022/02/13 08:17:04;;;;;;;21.45;13.07;;;;;;;0.75;67.04;101877.50;5069768;28;20063;-74
2022/02/13 08:19:35;;;;;;;24.50;13.65;;;;;;;0.80;67.03;101872.97;5069828;28;20040;-74
2022/02/13 08:22:01;;;;;;;23.95;13.45;;;;;;;0.89;66.75;101875.41;5069631;28;20508;-74
2022/02/13 08:24:26;;;;;;;28.52;14.70;;;;;;;0.99;66.91;101876.03;5069419;28;20051;-74
2022/02/13 08:26:52;;;;;;;24.55;13.32;;;;;;;1.06;66.58;101882.94;5069772;28;20038;-74
2022/02/13 08:29:17;;;;;;;25.60;14.25;;;;;;;1.15;66.85;101882.69;5069734;28;20024;-73
2022/02/13 08:31:43;;;;;;;26.13;15.02;;;;;;;1.21;67.19;101877.25;5067943;28;20040;-70
2022/02/13 08:34:08;;;;;;;26.33;15.23;;;;;;;1.21;67.09;101862.28;5067985;28;20028;-70
2022/02/13 08:36:34;;;;;;;30.17;14.43;;;;;;;1.34;67.22;101874.28;5066470;28;20028;-70
2022/02/13 08:38:59;;;;;;;29.83;14.10;;;;;;;1.52;66.58;101868.50;5067851;28;20393;-70
2022/02/13 08:41:25;;;;;;;29.17;14.13;;;;;;;1.53;66.92;101857.03;5066271;28;20717;-70
2022/02/13 08:43:50;;;;;;;26.38;14.73;;;;;;;1.57;66.61;101855.16;5067326;28;20039;-69
2022/02/13 08:46:16;;;;;;;25.73;13.60;;;;;;;1.67;66.99;101864.59;5067417;28;20043;-69
2022/02/13 08:48:43;;;;;;;27.55;14.55;;;;;;;1.68;66.63;101853.97;5067458;28;20529;-69
2022/02/13 08:51:09;;;;;;;24.55;13.73;;;;;;;1.84;66.40;101857.94;5067499;28;20153;-69
2022/02/13 08:53:34;;;;;;;23.45;13.68;;;;;;;1.97;66.35;101858.47;5065987;28;20032;-70
2022/02/13 08:56:00;;;;;;;22.08;13.80;;;;;;;2.05;66.44;101851.16;5067520;28;20160;-70
2022/02/13 08:58:25;;;;;;;20.95;12.85;;;;;;;2.10;66.07;101850.13;5065848;28;20039;-70
2022/02/13 09:00:51;;;;;;;25.58;14.57;;;;;;;2.18;66.08;101849.91;5067328;28;20032;-69
2022/02/13 09:03:16;;;;;;;24.67;13.90;;;;;;;2.21;65.75;101839.22;5066872;28;20036;-70
2022/02/13 09:05:42;;;;;;;24.63;13.90;;;;;;;2.34;65.43;101851.19;5065964;28;20024;-69
2022/02/13 09:08:08;;;;;;;24.73;14.43;;;;;;;2.39;65.35;101844.84;5065253;28;20043;-69
2022/02/13 09:10:34;;;;;;;28.98;16.52;;;;;;;2.54;65.46;101855.91;5067167;28;20051;-70
2022/02/13 09:12:59;;;;;;;24.63;14.23;;;;;;;2.54;65.61;101835.56;5067137;28;20059;-69
2022/02/13 09:15:26;;;;;;;25.33;14.23;;;;;;;2.66;65.43;101842.25;5065849;28;20581;-69
2022/02/13 09:17:52;;;;;;;27.60;15.27;;;;;;;2.79;65.17;101838.31;5065545;28;20472;-69
2022/02/13 09:20:17;;;;;;;32.38;14.55;;;;;;;2.85;64.83;101836.34;5066708;28;20051;-69
2022/02/13 09:22:42;;;;;;;27.52;15.82;;;;;;;3.04;64.51;101844.56;5065395;28;20037;-69
2022/02/13 09:25:08;;;;;;;25.75;14.70;;;;;;;3.13;64.57;101839.81;5067102;28;20439;-69
2022/02/13 09:27:34;;;;;;;30.00;15.38;;;;;;;3.27;64.45;101831.41;5067070;28;20063;-69
2022/02/13 09:29:59;;;;;;;27.67;15.45;;;;;;;3.31;64.13;101836.56;5066575;28;20118;-68
2022/02/13 09:32:25;;;;;;;20.63;14.05;;;;;;;3.41;63.69;101827.38;5065101;28;20047;-69
2022/02/13 09:34:50;;;;;;;24.75;14.00;;;;;;;3.44;63.78;101819.31;5065592;28;20060;-69
2022/02/13 09:37:16;;;;;;;24.70;13.93;;;;;;;3.55;63.42;101824.25;5067116;28;20473;-68
2022/02/13 09:39:41;;;;;;;22.70;13.80;;;;;;;3.69;63.17;101836.09;5065983;28;20033;-69
2022/02/13 09:42:08;;;;;;;23.75;14.40;;;;;;;3.93;62.73;101839.63;5066602;28;20460;-69
2022/02/13 09:44:34;;;;;;;24.80;14.43;;;;;;;3.99;62.84;101828.78;5066775;28;20063;-69
2022/02/13 09:47:00;;;;;;;25.42;14.90;;;;;;;4.11;62.73;101828.34;5065177;28;20441;-68
2022/02/13 09:49:25;;;;;;;22.38;14.90;;;;;;;4.26;62.49;101827.78;5067511;28;20498;-69
2022/02/13 09:51:50;;;;;;;24.05;13.75;;;;;;;4.35;61.75;101811.47;5067192;28;20097;-68
2022/02/13 09:54:17;;;;;;;26.05;14.52;;;;;;;4.64;61.31;101817.41;5066425;28;20106;-69
2022/02/13 09:56:46;;;;;;;22.20;13.48;;;;;;;4.88;60.97;101818.22;5067487;28;20028;-69
2022/02/13 09:59:11;;;;;;;23.40;13.02;;;;;;;5.09;60.38;101801.34;5067159;28;20032;-67
2022/02/13 10:01:42;;;;;;;25.20;12.68;;;;;;;5.38;59.74;101786.84;5066536;28;20036;-67
2022/02/13 10:04:12;;;;;;;23.83;12.45;;;;;;;5.88;58.42;101798.81;5065196;28;20491;-67
2022/02/13 10:06:38;;;;;;;18.55;11.75;;;;;;;6.31;57.41;101793.22;5066767;28;20040;-66
2022/02/13 10:09:05;;;;;;;21.48;12.02;;;;;;;6.98;55.74;101787.25;5066930;28;20029;-67
2022/02/13 10:11:34;;;;;;;16.48;11.38;;;;;;;8.14;52.85;101789.13;5065798;28;20044;-67
2022/02/13 10:14:05;;;;;;;19.42;11.25;;;;;;;9.00;49.86;101777.06;5063336;28;20123;-67
2022/02/13 10:16:32;;;;;;;19.67;9.98;;;;;;;9.66;47.42;101761.47;5066417;28;20061;-67
2022/02/13 10:19:25;;;;;;;17.58;10.38;;;;;;;10.27;46.15;101767.44;5066652;28;20089;-67
2022/02/13 10:21:59;;;;;;;15.93;9.77;;;;;;;10.59;45.37;101765.38;5069030;28;20585;-67
2022/02/13 10:24:27;;;;;;;17.15;10.48;;;;;;;10.60;44.54;101767.97;5070731;28;20036;-67
2022/02/13 10:27:16;;;;;;;21.02;11.02;;;;;;;10.33;44.89;101753.66;5069389;28;20127;-66
2022/02/13 10:29:44;;;;;;;14.70;9.63;;;;;;;10.10;45.80;101753.38;5071253;28;20111;-67
2022/02/13 10:32:19;;;;;;;19.55;10.43;;;;;;;9.74;46.46;101748.44;5069460;28;20052;-67
2022/02/13 10:35:03;;;;;;;14.45;9.63;;;;;;;9.40;46.89;101719.34;5070810;28;20078;-67
2022/02/13 10:37:44;;;;;;;;;;;;;;;9.29;47.55;101736.06;5071236;28;20035;-67
2022/02/13 10:40:14;;;;;;;18.73;10.57;;;;;;;9.12;47.79;101716.59;5070923;28;19915;-67
2022/02/13 10:42:39;;;;;;;17.73;9.85;;;;;;;8.91;48.54;101712.53;5069025;28;20033;-67
2022/02/13 10:45:30;;;;;;;18.55;11.35;;;;;;;8.79;48.89;101719.47;5070460;28;20103;-67
2022/02/13 10:48:06;;;;;;;19.30;10.93;;;;;;;8.54;49.53;101703.09;5065229;28;20045;-67
2022/02/13 10:50:36;;;;;;;16.10;9.98;;;;;;;8.43;49.49;101702.88;5070106;28;20075;-66
2022/02/13 10:53:04;;;;;;;17.92;9.35;;;;;;;8.33;50.03;101696.31;5070191;28;20032;-67
2022/02/13 10:55:32;;;;;;;20.40;10.90;;;;;;;8.28;50.81;101700.16;5068588;28;20455;-66
2022/02/13 10:57:58;;;;;;;19.38;11.10;;;;;;;8.23;50.88;101697.78;5069893;28;20024;-67
2022/02/13 11:00:30;;;;;;;16.83;10.02;;;;;;;8.19;51.41;101693.50;5068586;28;20051;-66
2022/02/13 11:03:02;;;;;;;17.90;11.50;;;;;;;8.16;50.90;101692.84;5069985;28;20043;-66
2022/02/13 11:05:29;;;;;;;16.08;11.23;;;;;;;8.08;51.30;101687.91;5069731;28;20025;-67
2022/02/13 11:08:01;;;;;;;15.30;10.05;;;;;;;8.06;51.26;101679.09;5070328;28;20085;-67